Fort Stanton, New Mexico
Current Conditions -  °F | °C
As of 11:15 PM on Sunday 21 Dec 2014 (Local Time) from KSRR Reporting Station
Clear Clear  
Wind Chill: 37°   Ceiling: Unl
Heat Index: 46°   Visibility: 10mi
Dew Point: 27°   Wind: 30mph
Humidity: 46%   Direction: 300°WNW
Pressure: 29.88"   Gusts: 45mph
Location:  33.5°N, 105.52°W
Report Text: KSRR 220615Z AUTO 30026G39KT 10SM CLR 08/M03 A2988 RMK AO2
Loading
Personal Weather Stations






























Interactive Weather Map New forecast layout! Learn more

10-Day Weather Forecast

Advertisements
Track Severe Weather on mobile